Ashland, Wisconsin
Current Conditions -  °F | °C
As of 3:18 PM on Monday 24 Nov 2014 (Local Time) from KASX Reporting Station
Light Snow Light Snow  
Wind Chill: 13°   Ceiling: 2800
Heat Index: 24°   Visibility: 1.7mi
Dew Point: 21°   Wind: 12mph
Humidity: 88%   Direction: 330°NNW
Pressure: 29.47"   Gusts: NA
Location:  46.59°N, 90.89°W
Report Text: KASX 242118Z AUTO 33010KT 1 3/4SM -SN BR FEW014 SCT019 OVC028 M04/M06 A2947 RMK AO2 P0000 T10441061
Loading
Personal Weather Stations






























Interactive Weather Map New forecast layout! Learn more

10-Day Weather Forecast

Advertisements
Track Severe Weather on mobile